sensor_id;sensor_type;location;lat;lon;timestamp;P1;durP1;ratioP1;P2;durP2;ratioP2
1693;SDS011;844;47.058;15.472;2023-02-28T00:00:33;10.80;;;8.40;;
1693;SDS011;844;47.058;15.472;2023-02-28T00:03:04;9.17;;;8.17;;
1693;SDS011;844;47.058;15.472;2023-02-28T00:05:36;7.10;;;6.40;;
1693;SDS011;844;47.058;15.472;2023-02-28T00:08:06;8.17;;;7.20;;
1693;SDS011;844;47.058;15.472;2023-02-28T00:10:37;9.67;;;8.67;;
1693;SDS011;844;47.058;15.472;2023-02-28T00:13:08;7.53;;;6.83;;
1693;SDS011;844;47.058;15.472;2023-02-28T00:15:40;8.60;;;7.70;;
1693;SDS011;844;47.058;15.472;2023-02-28T00:18:12;7.70;;;7.00;;
1693;SDS011;844;47.058;15.472;2023-02-28T00:20:42;7.13;;;6.40;;
1693;SDS011;844;47.058;15.472;2023-02-28T00:23:14;7.23;;;6.53;;
1693;SDS011;844;47.058;15.472;2023-02-28T00:25:46;8.47;;;7.67;;
1693;SDS011;844;47.058;15.472;2023-02-28T00:28:16;7.73;;;7.03;;
1693;SDS011;844;47.058;15.472;2023-02-28T00:30:47;8.30;;;7.50;;
1693;SDS011;844;47.058;15.472;2023-02-28T00:33:18;7.20;;;6.20;;
1693;SDS011;844;47.058;15.472;2023-02-28T00:35:48;7.20;;;6.20;;
1693;SDS011;844;47.058;15.472;2023-02-28T00:38:19;7.40;;;6.70;;
1693;SDS011;844;47.058;15.472;2023-02-28T00:40:50;8.03;;;7.33;;
1693;SDS011;844;47.058;15.472;2023-02-28T00:43:20;7.37;;;6.67;;
1693;SDS011;844;47.058;15.472;2023-02-28T00:45:52;8.23;;;7.43;;
1693;SDS011;844;47.058;15.472;2023-02-28T00:48:23;7.67;;;6.87;;
1693;SDS011;844;47.058;15.472;2023-02-28T00:50:54;6.77;;;6.17;;
1693;SDS011;844;47.058;15.472;2023-02-28T00:53:25;7.73;;;7.07;;
1693;SDS011;844;47.058;15.472;2023-02-28T00:55:55;7.27;;;6.53;;
1693;SDS011;844;47.058;15.472;2023-02-28T00:58:25;8.53;;;7.63;;
1693;SDS011;844;47.058;15.472;2023-02-28T01:00:57;7.83;;;7.17;;
1693;SDS011;844;47.058;15.472;2023-02-28T01:03:27;7.93;;;7.20;;
1693;SDS011;844;47.058;15.472;2023-02-28T01:05:57;7.47;;;6.67;;
1693;SDS011;844;47.058;15.472;2023-02-28T01:08:28;7.40;;;6.70;;
1693;SDS011;844;47.058;15.472;2023-02-28T01:11:06;7.37;;;6.60;;
1693;SDS011;844;47.058;15.472;2023-02-28T01:13:39;6.30;;;5.80;;
1693;SDS011;844;47.058;15.472;2023-02-28T01:16:11;6.10;;;5.53;;
1693;SDS011;844;47.058;15.472;2023-02-28T01:18:42;7.67;;;7.00;;
1693;SDS011;844;47.058;15.472;2023-02-28T01:21:13;9.07;;;5.70;;
1693;SDS011;844;47.058;15.472;2023-02-28T01:23:45;6.80;;;5.97;;
1693;SDS011;844;47.058;15.472;2023-02-28T01:26:17;5.87;;;5.23;;
1693;SDS011;844;47.058;15.472;2023-02-28T01:28:50;6.80;;;5.97;;
1693;SDS011;844;47.058;15.472;2023-02-28T01:31:22;7.10;;;6.50;;
1693;SDS011;844;47.058;15.472;2023-02-28T01:33:53;6.70;;;6.07;;
1693;SDS011;844;47.058;15.472;2023-02-28T01:36:24;6.87;;;6.10;;
1693;SDS011;844;47.058;15.472;2023-02-28T01:38:55;7.17;;;6.47;;
1693;SDS011;844;47.058;15.472;2023-02-28T01:41:27;6.87;;;6.20;;
1693;SDS011;844;47.058;15.472;2023-02-28T01:44:00;6.23;;;5.73;;
1693;SDS011;844;47.058;15.472;2023-02-28T01:46:35;6.30;;;5.70;;
1693;SDS011;844;47.058;15.472;2023-02-28T01:49:07;7.10;;;6.40;;
1693;SDS011;844;47.058;15.472;2023-02-28T01:51:41;6.50;;;6.00;;
1693;SDS011;844;47.058;15.472;2023-02-28T01:56:55;7.23;;;6.20;;
1693;SDS011;844;47.058;15.472;2023-02-28T01:59:29;7.97;;;6.80;;
1693;SDS011;844;47.058;15.472;2023-02-28T02:02:03;13.40;;;9.80;;
1693;SDS011;844;47.058;15.472;2023-02-28T02:04:36;10.53;;;9.43;;
1693;SDS011;844;47.058;15.472;2023-02-28T02:07:08;12.63;;;9.53;;
1693;SDS011;844;47.058;15.472;2023-02-28T02:09:39;12.00;;;10.30;;
1693;SDS011;844;47.058;15.472;2023-02-28T02:12:12;12.90;;;10.50;;
1693;SDS011;844;47.058;15.472;2023-02-28T02:14:58;13.00;;;10.73;;
1693;SDS011;844;47.058;15.472;2023-02-28T02:17:34;13.07;;;10.20;;
1693;SDS011;844;47.058;15.472;2023-02-28T02:23:28;8.60;;;7.70;;
1693;SDS011;844;47.058;15.472;2023-02-28T02:29:23;10.33;;;7.77;;
1693;SDS011;844;47.058;15.472;2023-02-28T02:32:14;6.70;;;6.10;;
1693;SDS011;844;47.058;15.472;2023-02-28T02:35:01;9.47;;;7.40;;
1693;SDS011;844;47.058;15.472;2023-02-28T02:37:41;7.80;;;7.00;;
1693;SDS011;844;47.058;15.472;2023-02-28T02:40:16;8.43;;;7.17;;
1693;SDS011;844;47.058;15.472;2023-02-28T02:42:51;8.03;;;7.23;;
1693;SDS011;844;47.058;15.472;2023-02-28T02:45:25;9.90;;;7.93;;
1693;SDS011;844;47.058;15.472;2023-02-28T02:47:56;8.97;;;8.07;;
1693;SDS011;844;47.058;15.472;2023-02-28T02:50:31;9.27;;;8.37;;
1693;SDS011;844;47.058;15.472;2023-02-28T02:53:05;10.20;;;7.20;;
1693;SDS011;844;47.058;15.472;2023-02-28T02:55:38;7.87;;;7.20;;
1693;SDS011;844;47.058;15.472;2023-02-28T02:58:13;7.30;;;6.60;;
1693;SDS011;844;47.058;15.472;2023-02-28T03:00:46;7.10;;;6.50;;
1693;SDS011;844;47.058;15.472;2023-02-28T03:03:18;6.50;;;5.70;;
1693;SDS011;844;47.058;15.472;2023-02-28T03:05:58;7.63;;;6.93;;
1693;SDS011;844;47.058;15.472;2023-02-28T03:08:36;7.97;;;6.30;;
1693;SDS011;844;47.058;15.472;2023-02-28T03:11:11;7.60;;;7.00;;
1693;SDS011;844;47.058;15.472;2023-02-28T03:13:52;7.10;;;6.50;;
1693;SDS011;844;47.058;15.472;2023-02-28T03:16:36;7.40;;;6.70;;
1693;SDS011;844;47.058;15.472;2023-02-28T03:19:44;8.00;;;7.20;;
1693;SDS011;844;47.058;15.472;2023-02-28T03:25:27;7.60;;;6.80;;
1693;SDS011;844;47.058;15.472;2023-02-28T03:30:41;7.13;;;6.53;;
1693;SDS011;844;47.058;15.472;2023-02-28T03:33:16;9.90;;;7.10;;
1693;SDS011;844;47.058;15.472;2023-02-28T03:35:52;8.00;;;7.00;;
1693;SDS011;844;47.058;15.472;2023-02-28T03:38:27;8.53;;;7.60;;
1693;SDS011;844;47.058;15.472;2023-02-28T03:41:03;7.33;;;6.63;;
1693;SDS011;844;47.058;15.472;2023-02-28T03:43:36;7.20;;;6.60;;
1693;SDS011;844;47.058;15.472;2023-02-28T03:46:11;7.03;;;6.43;;
1693;SDS011;844;47.058;15.472;2023-02-28T03:48:44;8.50;;;6.13;;
1693;SDS011;844;47.058;15.472;2023-02-28T03:51:17;7.40;;;6.20;;
1693;SDS011;844;47.058;15.472;2023-02-28T03:53:50;7.40;;;6.80;;
1693;SDS011;844;47.058;15.472;2023-02-28T03:56:32;7.40;;;6.70;;
1693;SDS011;844;47.058;15.472;2023-02-28T03:59:05;7.13;;;6.43;;
1693;SDS011;844;47.058;15.472;2023-02-28T04:01:39;6.07;;;5.47;;
1693;SDS011;844;47.058;15.472;2023-02-28T04:04:13;10.70;;;7.00;;
1693;SDS011;844;47.058;15.472;2023-02-28T04:06:44;7.00;;;6.40;;
1693;SDS011;844;47.058;15.472;2023-02-28T04:09:20;7.23;;;6.53;;
1693;SDS011;844;47.058;15.472;2023-02-28T04:11:53;8.20;;;7.47;;
1693;SDS011;844;47.058;15.472;2023-02-28T04:14:23;8.53;;;7.30;;
1693;SDS011;844;47.058;15.472;2023-02-28T04:16:53;6.73;;;6.10;;
1693;SDS011;844;47.058;15.472;2023-02-28T04:19:25;7.33;;;6.10;;
1693;SDS011;844;47.058;15.472;2023-02-28T04:21:55;7.23;;;6.50;;
1693;SDS011;844;47.058;15.472;2023-02-28T04:24:26;7.97;;;6.03;;
1693;SDS011;844;47.058;15.472;2023-02-28T04:26:59;8.37;;;6.77;;
1693;SDS011;844;47.058;15.472;2023-02-28T04:29:30;7.97;;;6.60;;
1693;SDS011;844;47.058;15.472;2023-02-28T04:32:00;6.83;;;6.23;;
1693;SDS011;844;47.058;15.472;2023-02-28T04:34:32;7.13;;;6.53;;
1693;SDS011;844;47.058;15.472;2023-02-28T04:37:02;7.77;;;6.73;;
1693;SDS011;844;47.058;15.472;2023-02-28T04:39:40;7.13;;;6.40;;
1693;SDS011;844;47.058;15.472;2023-02-28T04:42:12;8.30;;;7.30;;
1693;SDS011;844;47.058;15.472;2023-02-28T04:44:44;6.87;;;6.17;;
1693;SDS011;844;47.058;15.472;2023-02-28T04:47:14;10.27;;;6.67;;
1693;SDS011;844;47.058;15.472;2023-02-28T04:49:45;7.43;;;6.63;;
1693;SDS011;844;47.058;15.472;2023-02-28T04:52:18;7.90;;;7.20;;
1693;SDS011;844;47.058;15.472;2023-02-28T04:54:47;8.93;;;8.03;;
1693;SDS011;844;47.058;15.472;2023-02-28T04:57:19;10.50;;;7.67;;
1693;SDS011;844;47.058;15.472;2023-02-28T04:59:49;10.70;;;7.93;;
1693;SDS011;844;47.058;15.472;2023-02-28T05:02:21;7.53;;;6.87;;
1693;SDS011;844;47.058;15.472;2023-02-28T05:04:52;7.00;;;6.30;;
1693;SDS011;844;47.058;15.472;2023-02-28T05:07:22;8.30;;;6.90;;
1693;SDS011;844;47.058;15.472;2023-02-28T05:09:52;10.67;;;8.63;;
1693;SDS011;844;47.058;15.472;2023-02-28T05:12:24;8.77;;;7.90;;
1693;SDS011;844;47.058;15.472;2023-02-28T05:14:55;9.70;;;8.17;;
1693;SDS011;844;47.058;15.472;2023-02-28T05:17:25;8.60;;;7.80;;
1693;SDS011;844;47.058;15.472;2023-02-28T05:19:56;9.93;;;8.53;;
1693;SDS011;844;47.058;15.472;2023-02-28T05:22:41;9.27;;;8.30;;
1693;SDS011;844;47.058;15.472;2023-02-28T05:25:12;8.50;;;7.60;;
1693;SDS011;844;47.058;15.472;2023-02-28T05:27:46;10.90;;;9.40;;
1693;SDS011;844;47.058;15.472;2023-02-28T05:30:18;8.77;;;7.87;;
1693;SDS011;844;47.058;15.472;2023-02-28T05:32:50;9.57;;;8.57;;
1693;SDS011;844;47.058;15.472;2023-02-28T05:35:20;11.73;;;7.97;;
1693;SDS011;844;47.058;15.472;2023-02-28T05:37:51;8.13;;;6.80;;
1693;SDS011;844;47.058;15.472;2023-02-28T05:40:22;9.90;;;8.63;;
1693;SDS011;844;47.058;15.472;2023-02-28T05:42:54;11.60;;;9.40;;
1693;SDS011;844;47.058;15.472;2023-02-28T05:45:24;14.70;;;8.23;;
1693;SDS011;844;47.058;15.472;2023-02-28T05:47:56;14.57;;;8.90;;
1693;SDS011;844;47.058;15.472;2023-02-28T05:50:25;11.07;;;9.37;;
1693;SDS011;844;47.058;15.472;2023-02-28T05:52:56;10.37;;;9.07;;
1693;SDS011;844;47.058;15.472;2023-02-28T05:55:26;9.33;;;8.40;;
1693;SDS011;844;47.058;15.472;2023-02-28T05:57:58;9.50;;;8.60;;
1693;SDS011;844;47.058;15.472;2023-02-28T06:00:29;10.70;;;9.00;;
1693;SDS011;844;47.058;15.472;2023-02-28T06:03:00;9.33;;;8.13;;
1693;SDS011;844;47.058;15.472;2023-02-28T06:05:32;10.50;;;8.70;;
1693;SDS011;844;47.058;15.472;2023-02-28T06:08:03;9.47;;;8.30;;
1693;SDS011;844;47.058;15.472;2023-02-28T06:10:34;8.80;;;8.00;;
1693;SDS011;844;47.058;15.472;2023-02-28T06:13:06;12.60;;;9.27;;
1693;SDS011;844;47.058;15.472;2023-02-28T06:15:37;11.70;;;8.90;;
1693;SDS011;844;47.058;15.472;2023-02-28T06:18:08;9.77;;;8.80;;
1693;SDS011;844;47.058;15.472;2023-02-28T06:20:38;8.93;;;8.13;;
1693;SDS011;844;47.058;15.472;2023-02-28T06:23:10;12.90;;;9.40;;
1693;SDS011;844;47.058;15.472;2023-02-28T06:25:44;9.70;;;8.77;;
1693;SDS011;844;47.058;15.472;2023-02-28T06:28:15;10.57;;;9.37;;
1693;SDS011;844;47.058;15.472;2023-02-28T06:30:45;13.33;;;10.30;;
1693;SDS011;844;47.058;15.472;2023-02-28T06:33:16;10.43;;;9.33;;
1693;SDS011;844;47.058;15.472;2023-02-28T06:35:46;13.00;;;10.63;;
1693;SDS011;844;47.058;15.472;2023-02-28T06:38:18;10.23;;;8.70;;
1693;SDS011;844;47.058;15.472;2023-02-28T06:40:53;13.30;;;11.90;;
1693;SDS011;844;47.058;15.472;2023-02-28T06:43:27;11.83;;;10.53;;
1693;SDS011;844;47.058;15.472;2023-02-28T06:45:59;10.33;;;9.33;;
1693;SDS011;844;47.058;15.472;2023-02-28T06:48:32;9.90;;;8.90;;
1693;SDS011;844;47.058;15.472;2023-02-28T06:51:03;11.43;;;9.90;;
1693;SDS011;844;47.058;15.472;2023-02-28T06:53:34;12.60;;;10.37;;
1693;SDS011;844;47.058;15.472;2023-02-28T06:56:06;10.10;;;9.10;;
1693;SDS011;844;47.058;15.472;2023-02-28T06:58:39;10.70;;;8.80;;
1693;SDS011;844;47.058;15.472;2023-02-28T07:01:13;14.07;;;9.73;;
1693;SDS011;844;47.058;15.472;2023-02-28T07:03:44;11.40;;;10.20;;
1693;SDS011;844;47.058;15.472;2023-02-28T07:06:19;16.67;;;10.60;;
1693;SDS011;844;47.058;15.472;2023-02-28T07:08:51;12.53;;;11.30;;
1693;SDS011;844;47.058;15.472;2023-02-28T07:11:23;15.47;;;10.37;;
1693;SDS011;844;47.058;15.472;2023-02-28T07:13:58;13.30;;;10.60;;
1693;SDS011;844;47.058;15.472;2023-02-28T07:16:28;12.40;;;9.37;;
1693;SDS011;844;47.058;15.472;2023-02-28T07:18:59;15.37;;;12.00;;
1693;SDS011;844;47.058;15.472;2023-02-28T07:21:29;11.17;;;9.70;;
1693;SDS011;844;47.058;15.472;2023-02-28T07:24:00;10.63;;;9.57;;
1693;SDS011;844;47.058;15.472;2023-02-28T07:26:31;11.10;;;9.10;;
1693;SDS011;844;47.058;15.472;2023-02-28T07:29:05;10.93;;;9.87;;
1693;SDS011;844;47.058;15.472;2023-02-28T07:31:36;11.40;;;10.20;;
1693;SDS011;844;47.058;15.472;2023-02-28T07:34:06;12.87;;;9.23;;
1693;SDS011;844;47.058;15.472;2023-02-28T07:36:37;11.90;;;10.77;;
1693;SDS011;844;47.058;15.472;2023-02-28T07:39:10;10.60;;;9.50;;
1693;SDS011;844;47.058;15.472;2023-02-28T07:41:40;11.63;;;10.43;;
1693;SDS011;844;47.058;15.472;2023-02-28T07:44:13;11.17;;;10.10;;
1693;SDS011;844;47.058;15.472;2023-02-28T07:46:43;12.27;;;10.10;;
1693;SDS011;844;47.058;15.472;2023-02-28T07:49:14;9.77;;;8.77;;
1693;SDS011;844;47.058;15.472;2023-02-28T07:51:44;13.27;;;9.97;;
1693;SDS011;844;47.058;15.472;2023-02-28T07:54:15;11.43;;;9.40;;
1693;SDS011;844;47.058;15.472;2023-02-28T07:56:46;11.27;;;9.43;;
1693;SDS011;844;47.058;15.472;2023-02-28T07:59:18;12.23;;;11.03;;
1693;SDS011;844;47.058;15.472;2023-02-28T08:01:48;10.77;;;9.70;;
1693;SDS011;844;47.058;15.472;2023-02-28T08:04:19;10.00;;;8.70;;
1693;SDS011;844;47.058;15.472;2023-02-28T08:06:50;11.90;;;9.63;;
1693;SDS011;844;47.058;15.472;2023-02-28T08:09:21;14.90;;;10.63;;
1693;SDS011;844;47.058;15.472;2023-02-28T08:11:51;13.20;;;10.70;;
1693;SDS011;844;47.058;15.472;2023-02-28T08:14:24;15.93;;;11.27;;
1693;SDS011;844;47.058;15.472;2023-02-28T08:16:55;10.77;;;9.63;;
1693;SDS011;844;47.058;15.472;2023-02-28T08:19:25;11.57;;;10.40;;
1693;SDS011;844;47.058;15.472;2023-02-28T08:21:56;12.87;;;9.97;;
1693;SDS011;844;47.058;15.472;2023-02-28T08:24:26;12.40;;;9.83;;
1693;SDS011;844;47.058;15.472;2023-02-28T08:26:56;13.10;;;11.77;;
1693;SDS011;844;47.058;15.472;2023-02-28T08:29:28;11.60;;;9.70;;
1693;SDS011;844;47.058;15.472;2023-02-28T08:31:59;14.63;;;10.07;;
1693;SDS011;844;47.058;15.472;2023-02-28T08:34:31;12.13;;;9.60;;
1693;SDS011;844;47.058;15.472;2023-02-28T08:37:02;11.00;;;9.60;;
1693;SDS011;844;47.058;15.472;2023-02-28T08:39:34;18.07;;;11.00;;
1693;SDS011;844;47.058;15.472;2023-02-28T08:42:04;11.83;;;9.80;;
1693;SDS011;844;47.058;15.472;2023-02-28T08:44:36;10.83;;;9.80;;
1693;SDS011;844;47.058;15.472;2023-02-28T08:47:08;12.13;;;9.63;;
1693;SDS011;844;47.058;15.472;2023-02-28T08:49:39;12.87;;;10.53;;
1693;SDS011;844;47.058;15.472;2023-02-28T08:52:10;13.00;;;10.90;;
1693;SDS011;844;47.058;15.472;2023-02-28T08:54:40;12.10;;;10.90;;
1693;SDS011;844;47.058;15.472;2023-02-28T08:57:11;13.87;;;11.33;;
1693;SDS011;844;47.058;15.472;2023-02-28T08:59:43;12.23;;;10.10;;
1693;SDS011;844;47.058;15.472;2023-02-28T09:02:14;16.33;;;10.40;;
1693;SDS011;844;47.058;15.472;2023-02-28T09:04:44;9.53;;;8.60;;
1693;SDS011;844;47.058;15.472;2023-02-28T09:07:15;13.50;;;11.30;;
1693;SDS011;844;47.058;15.472;2023-02-28T09:09:46;18.40;;;11.57;;
1693;SDS011;844;47.058;15.472;2023-02-28T09:12:22;12.00;;;10.80;;
1693;SDS011;844;47.058;15.472;2023-02-28T09:14:55;17.13;;;10.60;;
1693;SDS011;844;47.058;15.472;2023-02-28T09:17:28;12.53;;;11.23;;
1693;SDS011;844;47.058;15.472;2023-02-28T09:19:59;19.20;;;11.23;;
1693;SDS011;844;47.058;15.472;2023-02-28T09:22:29;11.43;;;10.10;;
1693;SDS011;844;47.058;15.472;2023-02-28T09:25:00;17.47;;;11.70;;
1693;SDS011;844;47.058;15.472;2023-02-28T09:27:31;14.50;;;11.53;;
1693;SDS011;844;47.058;15.472;2023-02-28T09:30:03;15.27;;;10.10;;
1693;SDS011;844;47.058;15.472;2023-02-28T09:32:36;13.23;;;10.87;;
1693;SDS011;844;47.058;15.472;2023-02-28T09:35:07;15.10;;;11.20;;
1693;SDS011;844;47.058;15.472;2023-02-28T09:37:41;12.10;;;10.80;;
1693;SDS011;844;47.058;15.472;2023-02-28T09:40:12;12.07;;;10.90;;
1693;SDS011;844;47.058;15.472;2023-02-28T09:42:47;12.77;;;11.33;;
1693;SDS011;844;47.058;15.472;2023-02-28T09:45:22;14.20;;;12.20;;
1693;SDS011;844;47.058;15.472;2023-02-28T09:47:58;11.27;;;9.50;;
1693;SDS011;844;47.058;15.472;2023-02-28T09:50:33;14.10;;;11.43;;
1693;SDS011;844;47.058;15.472;2023-02-28T09:53:09;13.33;;;11.87;;
1693;SDS011;844;47.058;15.472;2023-02-28T09:55:44;13.17;;;11.87;;
1693;SDS011;844;47.058;15.472;2023-02-28T09:58:20;12.77;;;11.47;;
1693;SDS011;844;47.058;15.472;2023-02-28T10:00:56;14.53;;;11.90;;
1693;SDS011;844;47.058;15.472;2023-02-28T10:03:30;12.97;;;11.60;;
1693;SDS011;844;47.058;15.472;2023-02-28T10:06:05;12.20;;;11.00;;
1693;SDS011;844;47.058;15.472;2023-02-28T10:08:41;14.40;;;12.73;;
1693;SDS011;844;47.058;15.472;2023-02-28T10:11:18;13.33;;;11.63;;
1693;SDS011;844;47.058;15.472;2023-02-28T10:13:52;13.37;;;11.97;;
1693;SDS011;844;47.058;15.472;2023-02-28T10:16:31;13.27;;;10.90;;
1693;SDS011;844;47.058;15.472;2023-02-28T10:19:04;14.83;;;12.20;;
1693;SDS011;844;47.058;15.472;2023-02-28T10:21:38;13.90;;;12.63;;
1693;SDS011;844;47.058;15.472;2023-02-28T10:24:15;12.17;;;10.90;;
1693;SDS011;844;47.058;15.472;2023-02-28T10:26:49;12.57;;;11.37;;
1693;SDS011;844;47.058;15.472;2023-02-28T10:29:26;14.10;;;11.90;;
1693;SDS011;844;47.058;15.472;2023-02-28T10:32:00;13.20;;;11.80;;
1693;SDS011;844;47.058;15.472;2023-02-28T10:34:32;14.90;;;11.97;;
1693;SDS011;844;47.058;15.472;2023-02-28T10:37:03;13.07;;;11.77;;
1693;SDS011;844;47.058;15.472;2023-02-28T10:39:37;13.43;;;12.10;;
1693;SDS011;844;47.058;15.472;2023-02-28T10:42:20;14.20;;;12.47;;
1693;SDS011;844;47.058;15.472;2023-02-28T10:45:09;13.33;;;11.17;;
1693;SDS011;844;47.058;15.472;2023-02-28T10:47:51;15.83;;;12.30;;
1693;SDS011;844;47.058;15.472;2023-02-28T10:50:28;13.30;;;11.90;;
1693;SDS011;844;47.058;15.472;2023-02-28T10:56:14;13.90;;;11.67;;
1693;SDS011;844;47.058;15.472;2023-02-28T10:58:50;13.40;;;12.10;;
1693;SDS011;844;47.058;15.472;2023-02-28T11:01:23;13.27;;;11.73;;
1693;SDS011;844;47.058;15.472;2023-02-28T11:04:05;25.13;;;14.43;;
1693;SDS011;844;47.058;15.472;2023-02-28T11:06:55;13.53;;;12.10;;
1693;SDS011;844;47.058;15.472;2023-02-28T11:09:28;15.23;;;13.60;;
1693;SDS011;844;47.058;15.472;2023-02-28T11:11:59;15.07;;;12.80;;
1693;SDS011;844;47.058;15.472;2023-02-28T11:14:31;13.70;;;12.40;;
1693;SDS011;844;47.058;15.472;2023-02-28T11:17:11;14.33;;;12.83;;
1693;SDS011;844;47.058;15.472;2023-02-28T11:19:47;13.90;;;12.53;;
1693;SDS011;844;47.058;15.472;2023-02-28T11:22:20;16.20;;;13.33;;
1693;SDS011;844;47.058;15.472;2023-02-28T11:24:56;16.07;;;13.53;;
1693;SDS011;844;47.058;15.472;2023-02-28T11:27:43;13.93;;;12.57;;
1693;SDS011;844;47.058;15.472;2023-02-28T11:30:30;14.33;;;12.73;;
1693;SDS011;844;47.058;15.472;2023-02-28T11:33:19;13.97;;;12.43;;
1693;SDS011;844;47.058;15.472;2023-02-28T11:35:58;13.60;;;12.30;;
1693;SDS011;844;47.058;15.472;2023-02-28T11:38:32;17.47;;;13.27;;
1693;SDS011;844;47.058;15.472;2023-02-28T11:41:12;16.83;;;12.70;;
1693;SDS011;844;47.058;15.472;2023-02-28T11:44:01;14.87;;;13.40;;
1693;SDS011;844;47.058;15.472;2023-02-28T11:46:42;20.53;;;13.13;;
1693;SDS011;844;47.058;15.472;2023-02-28T11:49:22;17.20;;;14.27;;
1693;SDS011;844;47.058;15.472;2023-02-28T11:52:04;17.57;;;15.10;;
1693;SDS011;844;47.058;15.472;2023-02-28T11:54:47;15.90;;;13.10;;
1693;SDS011;844;47.058;15.472;2023-02-28T11:57:33;14.80;;;13.07;;
1693;SDS011;844;47.058;15.472;2023-02-28T12:00:14;21.70;;;15.50;;
1693;SDS011;844;47.058;15.472;2023-02-28T12:02:54;13.90;;;12.47;;
1693;SDS011;844;47.058;15.472;2023-02-28T12:05:31;19.50;;;14.50;;
1693;SDS011;844;47.058;15.472;2023-02-28T12:08:10;17.40;;;13.50;;
1693;SDS011;844;47.058;15.472;2023-02-28T12:10:53;17.50;;;13.73;;
1693;SDS011;844;47.058;15.472;2023-02-28T12:13:34;19.20;;;15.27;;
1693;SDS011;844;47.058;15.472;2023-02-28T12:16:17;17.13;;;15.47;;
1693;SDS011;844;47.058;15.472;2023-02-28T12:19:01;16.47;;;14.37;;
1693;SDS011;844;47.058;15.472;2023-02-28T12:21:43;17.10;;;13.57;;
1693;SDS011;844;47.058;15.472;2023-02-28T12:24:28;21.27;;;15.87;;
1693;SDS011;844;47.058;15.472;2023-02-28T12:27:09;15.77;;;13.87;;
1693;SDS011;844;47.058;15.472;2023-02-28T12:29:43;18.93;;;14.17;;
1693;SDS011;844;47.058;15.472;2023-02-28T12:32:18;17.70;;;14.37;;
1693;SDS011;844;47.058;15.472;2023-02-28T12:34:55;21.07;;;14.17;;
1693;SDS011;844;47.058;15.472;2023-02-28T12:37:29;15.70;;;13.10;;
1693;SDS011;844;47.058;15.472;2023-02-28T12:40:09;17.67;;;14.40;;
1693;SDS011;844;47.058;15.472;2023-02-28T12:42:44;18.43;;;14.67;;
1693;SDS011;844;47.058;15.472;2023-02-28T12:45:18;16.87;;;14.37;;
1693;SDS011;844;47.058;15.472;2023-02-28T12:47:50;17.80;;;15.93;;
1693;SDS011;844;47.058;15.472;2023-02-28T12:50:24;15.60;;;13.83;;
1693;SDS011;844;47.058;15.472;2023-02-28T12:52:58;16.67;;;12.60;;
1693;SDS011;844;47.058;15.472;2023-02-28T12:55:35;14.97;;;13.43;;
1693;SDS011;844;47.058;15.472;2023-02-28T12:58:13;19.90;;;14.53;;
1693;SDS011;844;47.058;15.472;2023-02-28T13:00:53;20.20;;;15.43;;
1693;SDS011;844;47.058;15.472;2023-02-28T13:07:02;15.87;;;14.17;;
1693;SDS011;844;47.058;15.472;2023-02-28T13:09:53;19.00;;;15.60;;
1693;SDS011;844;47.058;15.472;2023-02-28T13:12:26;19.33;;;14.63;;
1693;SDS011;844;47.058;15.472;2023-02-28T13:15:07;17.63;;;15.07;;
1693;SDS011;844;47.058;15.472;2023-02-28T13:17:48;17.37;;;14.10;;
1693;SDS011;844;47.058;15.472;2023-02-28T13:20:20;17.40;;;13.23;;
1693;SDS011;844;47.058;15.472;2023-02-28T13:22:53;19.13;;;13.70;;
1693;SDS011;844;47.058;15.472;2023-02-28T13:34:46;22.23;;;16.57;;
1693;SDS011;844;47.058;15.472;2023-02-28T13:37:34;16.83;;;14.83;;
1693;SDS011;844;47.058;15.472;2023-02-28T13:40:23;16.80;;;14.07;;
1693;SDS011;844;47.058;15.472;2023-02-28T13:42:58;20.80;;;16.20;;
1693;SDS011;844;47.058;15.472;2023-02-28T13:45:29;20.07;;;14.97;;
1693;SDS011;844;47.058;15.472;2023-02-28T13:48:15;19.80;;;15.23;;
1693;SDS011;844;47.058;15.472;2023-02-28T13:50:50;15.43;;;13.93;;
1693;SDS011;844;47.058;15.472;2023-02-28T13:53:28;17.10;;;14.53;;
1693;SDS011;844;47.058;15.472;2023-02-28T13:56:09;17.60;;;15.23;;
1693;SDS011;844;47.058;15.472;2023-02-28T13:58:52;18.37;;;14.60;;
1693;SDS011;844;47.058;15.472;2023-02-28T14:01:31;15.93;;;14.10;;
1693;SDS011;844;47.058;15.472;2023-02-28T14:04:17;17.63;;;14.33;;
1693;SDS011;844;47.058;15.472;2023-02-28T14:07:06;15.40;;;13.30;;
1693;SDS011;844;47.058;15.472;2023-02-28T14:09:39;16.20;;;14.50;;
1693;SDS011;844;47.058;15.472;2023-02-28T14:18:19;16.60;;;13.23;;
1693;SDS011;844;47.058;15.472;2023-02-28T14:20:57;18.23;;;13.80;;
1693;SDS011;844;47.058;15.472;2023-02-28T14:23:42;16.40;;;13.10;;
1693;SDS011;844;47.058;15.472;2023-02-28T14:26:26;16.60;;;13.80;;
1693;SDS011;844;47.058;15.472;2023-02-28T14:29:09;18.43;;;13.80;;
1693;SDS011;844;47.058;15.472;2023-02-28T14:31:49;14.23;;;12.73;;
1693;SDS011;844;47.058;15.472;2023-02-28T14:34:26;17.53;;;14.90;;
1693;SDS011;844;47.058;15.472;2023-02-28T14:37:05;15.10;;;11.67;;
1693;SDS011;844;47.058;15.472;2023-02-28T14:39:40;17.43;;;11.93;;
1693;SDS011;844;47.058;15.472;2023-02-28T14:42:28;14.90;;;13.40;;
1693;SDS011;844;47.058;15.472;2023-02-28T14:45:00;14.47;;;12.93;;
1693;SDS011;844;47.058;15.472;2023-02-28T14:47:31;13.77;;;12.30;;
1693;SDS011;844;47.058;15.472;2023-02-28T14:50:03;14.50;;;12.90;;
1693;SDS011;844;47.058;15.472;2023-02-28T14:52:36;13.37;;;12.17;;
1693;SDS011;844;47.058;15.472;2023-02-28T14:55:12;15.60;;;13.33;;
1693;SDS011;844;47.058;15.472;2023-02-28T14:57:53;15.40;;;11.53;;
1693;SDS011;844;47.058;15.472;2023-02-28T15:00:25;13.93;;;11.47;;
1693;SDS011;844;47.058;15.472;2023-02-28T15:02:58;16.10;;;13.27;;
1693;SDS011;844;47.058;15.472;2023-02-28T15:05:30;21.30;;;13.70;;
1693;SDS011;844;47.058;15.472;2023-02-28T15:08:06;17.43;;;14.60;;
1693;SDS011;844;47.058;15.472;2023-02-28T15:10:43;20.90;;;15.87;;
1693;SDS011;844;47.058;15.472;2023-02-28T15:13:18;18.50;;;14.00;;
1693;SDS011;844;47.058;15.472;2023-02-28T15:15:50;18.33;;;13.60;;
1693;SDS011;844;47.058;15.472;2023-02-28T15:18:33;14.47;;;12.60;;
1693;SDS011;844;47.058;15.472;2023-02-28T15:21:11;16.80;;;12.90;;
1693;SDS011;844;47.058;15.472;2023-02-28T15:23:45;14.67;;;13.20;;
1693;SDS011;844;47.058;15.472;2023-02-28T15:26:21;15.40;;;13.60;;
1693;SDS011;844;47.058;15.472;2023-02-28T15:28:56;17.30;;;13.00;;
1693;SDS011;844;47.058;15.472;2023-02-28T15:31:29;17.33;;;13.07;;
1693;SDS011;844;47.058;15.472;2023-02-28T15:34:22;13.77;;;12.33;;
1693;SDS011;844;47.058;15.472;2023-02-28T15:39:58;15.10;;;13.50;;
1693;SDS011;844;47.058;15.472;2023-02-28T15:42:39;17.30;;;12.97;;
1693;SDS011;844;47.058;15.472;2023-02-28T15:45:28;19.73;;;15.70;;
1693;SDS011;844;47.058;15.472;2023-02-28T15:48:09;18.60;;;14.33;;
1693;SDS011;844;47.058;15.472;2023-02-28T15:50:48;15.70;;;13.00;;
1693;SDS011;844;47.058;15.472;2023-02-28T15:53:21;15.30;;;13.17;;
1693;SDS011;844;47.058;15.472;2023-02-28T15:55:55;18.63;;;12.57;;
1693;SDS011;844;47.058;15.472;2023-02-28T15:58:30;16.40;;;13.43;;
1693;SDS011;844;47.058;15.472;2023-02-28T16:01:07;17.43;;;15.20;;
1693;SDS011;844;47.058;15.472;2023-02-28T16:03:47;17.30;;;15.47;;
1693;SDS011;844;47.058;15.472;2023-02-28T16:06:36;16.87;;;15.07;;
1693;SDS011;844;47.058;15.472;2023-02-28T16:09:11;16.10;;;12.50;;
1693;SDS011;844;47.058;15.472;2023-02-28T16:11:42;17.13;;;13.03;;
1693;SDS011;844;47.058;15.472;2023-02-28T16:14:17;17.30;;;14.23;;
1693;SDS011;844;47.058;15.472;2023-02-28T16:16:50;18.10;;;15.50;;
1693;SDS011;844;47.058;15.472;2023-02-28T16:19:22;18.50;;;15.47;;
1693;SDS011;844;47.058;15.472;2023-02-28T16:21:52;20.43;;;14.20;;